Baltimore, Maryland
Traffic Map
Current Weather Conditions
Baltimore, Maryland
Clear
Clear
74°
Feels Like: 74°
Wind Chill: 74° Ceiling: Unl
Heat Index: 74° Visibility: 10mi
Dew Point: 59° Wind: 5mph
Humidity: 59% Direction: 190° (S)
Pressure: 30.19in Gusts: 0mph
Raw Report DataKBWI 260154Z 19004KT 10SM CLR 23/15 A3019 RMK AO2 SLP220 T02330150
Traffic Incident Summary
Active as of:
Severity:
Category:
InformationThere was an issue retrieving the traffic information for this location. Please try a different location or try again shortly.
Advertisements
Track Severe Weather on mobile